Terminal Aerodrome Forecast
Issued by NWS Tulsa, OK

Home | Current Version | Previous Version | Text Only | Print | Product List | Glossary On
Versions: 1 2 3 4 5 6 7 8 9 10 11 12 13
000
FTUS44 KTSA 011720
TAFTUL
TAF
KTUL 011720Z 0118/0218 19014G22KT P6SM SCT150 BKN250
     FM020100 19011G18KT P6SM BKN100
     FM021500 29008KT P6SM BKN150=

USA.gov is the U.S. government's official web portal to all federal, state and local government web resources and services.